sensor_id;sensor_type;location;lat;lon;timestamp;temperature;humidity
78438;SHT31;67736;51.978;5.656;2023-06-22T00:00:23;23.0;57.5
78438;SHT31;67736;51.978;5.656;2023-06-22T00:02:53;23.0;57.7
78438;SHT31;67736;51.978;5.656;2023-06-22T00:05:22;23.0;57.5
78438;SHT31;67736;51.978;5.656;2023-06-22T00:07:52;22.9;57.5
78438;SHT31;67736;51.978;5.656;2023-06-22T00:10:22;22.9;57.5
78438;SHT31;67736;51.978;5.656;2023-06-22T00:12:52;22.9;57.6
78438;SHT31;67736;51.978;5.656;2023-06-22T00:15:21;22.9;57.6
78438;SHT31;67736;51.978;5.656;2023-06-22T00:17:51;22.8;57.9
78438;SHT31;67736;51.978;5.656;2023-06-22T00:20:20;22.8;57.8
78438;SHT31;67736;51.978;5.656;2023-06-22T00:22:50;22.7;57.9
78438;SHT31;67736;51.978;5.656;2023-06-22T00:25:19;22.7;57.9
78438;SHT31;67736;51.978;5.656;2023-06-22T00:27:50;22.7;58.2
78438;SHT31;67736;51.978;5.656;2023-06-22T00:30:19;22.6;58.3
78438;SHT31;67736;51.978;5.656;2023-06-22T00:32:49;22.6;58.5
78438;SHT31;67736;51.978;5.656;2023-06-22T00:35:19;22.5;58.5
78438;SHT31;67736;51.978;5.656;2023-06-22T00:37:50;22.5;58.4
78438;SHT31;67736;51.978;5.656;2023-06-22T00:40:25;22.5;58.4
78438;SHT31;67736;51.978;5.656;2023-06-22T00:42:56;22.5;58.4
78438;SHT31;67736;51.978;5.656;2023-06-22T00:45:26;22.4;58.6
78438;SHT31;67736;51.978;5.656;2023-06-22T00:47:57;22.4;58.4
78438;SHT31;67736;51.978;5.656;2023-06-22T00:50:30;22.4;58.3
78438;SHT31;67736;51.978;5.656;2023-06-22T00:53:04;22.3;58.7
78438;SHT31;67736;51.978;5.656;2023-06-22T00:55:38;22.3;58.6
78438;SHT31;67736;51.978;5.656;2023-06-22T00:58:10;22.3;59.0
78438;SHT31;67736;51.978;5.656;2023-06-22T01:00:41;22.3;58.8
78438;SHT31;67736;51.978;5.656;2023-06-22T01:03:10;22.2;59.2
78438;SHT31;67736;51.978;5.656;2023-06-22T01:05:40;22.2;59.1
78438;SHT31;67736;51.978;5.656;2023-06-22T01:08:21;22.2;59.0
78438;SHT31;67736;51.978;5.656;2023-06-22T01:10:57;22.2;59.0
78438;SHT31;67736;51.978;5.656;2023-06-22T01:13:35;22.2;59.0
78438;SHT31;67736;51.978;5.656;2023-06-22T01:16:12;22.1;59.2
78438;SHT31;67736;51.978;5.656;2023-06-22T01:18:46;22.1;59.3
78438;SHT31;67736;51.978;5.656;2023-06-22T01:21:20;22.0;59.6
78438;SHT31;67736;51.978;5.656;2023-06-22T01:24:10;22.0;59.7
78438;SHT31;67736;51.978;5.656;2023-06-22T01:26:48;21.9;59.9
78438;SHT31;67736;51.978;5.656;2023-06-22T01:29:21;21.9;60.0
78438;SHT31;67736;51.978;5.656;2023-06-22T01:31:54;21.9;60.1
78438;SHT31;67736;51.978;5.656;2023-06-22T01:34:28;21.8;60.1
78438;SHT31;67736;51.978;5.656;2023-06-22T01:36:59;21.8;60.0
78438;SHT31;67736;51.978;5.656;2023-06-22T01:39:30;21.8;60.1
78438;SHT31;67736;51.978;5.656;2023-06-22T01:42:02;21.7;60.2
78438;SHT31;67736;51.978;5.656;2023-06-22T01:44:34;21.7;60.5
78438;SHT31;67736;51.978;5.656;2023-06-22T01:47:05;21.7;60.5
78438;SHT31;67736;51.978;5.656;2023-06-22T01:49:35;21.6;60.9
78438;SHT31;67736;51.978;5.656;2023-06-22T01:52:08;21.6;60.7
78438;SHT31;67736;51.978;5.656;2023-06-22T01:54:39;21.6;60.7
78438;SHT31;67736;51.978;5.656;2023-06-22T01:57:10;21.6;60.8
78438;SHT31;67736;51.978;5.656;2023-06-22T01:59:51;21.6;60.6
78438;SHT31;67736;51.978;5.656;2023-06-22T02:02:25;21.6;60.6
78438;SHT31;67736;51.978;5.656;2023-06-22T02:04:59;21.6;60.7
78438;SHT31;67736;51.978;5.656;2023-06-22T02:07:33;21.5;60.6
78438;SHT31;67736;51.978;5.656;2023-06-22T02:10:08;21.5;60.6
78438;SHT31;67736;51.978;5.656;2023-06-22T02:12:42;21.5;60.8
78438;SHT31;67736;51.978;5.656;2023-06-22T02:15:15;21.5;60.8
78438;SHT31;67736;51.978;5.656;2023-06-22T02:17:45;21.5;60.6
78438;SHT31;67736;51.978;5.656;2023-06-22T02:20:15;21.5;60.8
78438;SHT31;67736;51.978;5.656;2023-06-22T02:22:45;21.4;61.0
78438;SHT31;67736;51.978;5.656;2023-06-22T02:25:15;21.4;61.1
78438;SHT31;67736;51.978;5.656;2023-06-22T02:27:46;21.4;61.2
78438;SHT31;67736;51.978;5.656;2023-06-22T02:30:18;21.3;61.2
78438;SHT31;67736;51.978;5.656;2023-06-22T02:32:47;21.3;61.1
78438;SHT31;67736;51.978;5.656;2023-06-22T02:35:22;21.3;61.1
78438;SHT31;67736;51.978;5.656;2023-06-22T02:37:52;21.2;61.4
78438;SHT31;67736;51.978;5.656;2023-06-22T02:40:21;21.2;61.7
78438;SHT31;67736;51.978;5.656;2023-06-22T02:42:51;21.2;61.8
78438;SHT31;67736;51.978;5.656;2023-06-22T02:45:23;21.1;61.8
78438;SHT31;67736;51.978;5.656;2023-06-22T02:47:53;21.1;62.0
78438;SHT31;67736;51.978;5.656;2023-06-22T02:50:22;21.1;62.1
78438;SHT31;67736;51.978;5.656;2023-06-22T02:52:52;21.1;62.4
78438;SHT31;67736;51.978;5.656;2023-06-22T02:55:21;21.0;62.1
78438;SHT31;67736;51.978;5.656;2023-06-22T02:57:53;21.0;61.8
78438;SHT31;67736;51.978;5.656;2023-06-22T03:00:25;21.0;62.1
78438;SHT31;67736;51.978;5.656;2023-06-22T03:02:57;21.0;62.2
78438;SHT31;67736;51.978;5.656;2023-06-22T03:05:27;20.9;62.3
78438;SHT31;67736;51.978;5.656;2023-06-22T03:07:57;20.9;62.3
78438;SHT31;67736;51.978;5.656;2023-06-22T03:10:27;20.9;62.4
78438;SHT31;67736;51.978;5.656;2023-06-22T03:12:56;20.9;62.4
78438;SHT31;67736;51.978;5.656;2023-06-22T03:15:26;20.8;62.7
78438;SHT31;67736;51.978;5.656;2023-06-22T03:17:57;20.8;62.9
78438;SHT31;67736;51.978;5.656;2023-06-22T03:20:28;20.8;63.1
78438;SHT31;67736;51.978;5.656;2023-06-22T03:23:00;20.7;62.8
78438;SHT31;67736;51.978;5.656;2023-06-22T03:25:30;20.7;62.8
78438;SHT31;67736;51.978;5.656;2023-06-22T03:28:01;20.7;63.1
78438;SHT31;67736;51.978;5.656;2023-06-22T03:30:30;20.7;63.2
78438;SHT31;67736;51.978;5.656;2023-06-22T03:33:00;20.6;63.4
78438;SHT31;67736;51.978;5.656;2023-06-22T03:35:30;20.6;63.5
78438;SHT31;67736;51.978;5.656;2023-06-22T03:37:59;20.6;63.7
78438;SHT31;67736;51.978;5.656;2023-06-22T03:40:31;20.6;63.7
78438;SHT31;67736;51.978;5.656;2023-06-22T03:43:00;20.6;63.4
78438;SHT31;67736;51.978;5.656;2023-06-22T03:45:30;20.6;63.4
78438;SHT31;67736;51.978;5.656;2023-06-22T03:48:00;20.6;63.7
78438;SHT31;67736;51.978;5.656;2023-06-22T03:50:33;20.5;63.8
78438;SHT31;67736;51.978;5.656;2023-06-22T03:53:03;20.5;63.8
78438;SHT31;67736;51.978;5.656;2023-06-22T03:55:36;20.5;63.8
78438;SHT31;67736;51.978;5.656;2023-06-22T03:58:07;20.5;64.0
78438;SHT31;67736;51.978;5.656;2023-06-22T04:00:37;20.5;64.0
78438;SHT31;67736;51.978;5.656;2023-06-22T04:03:09;20.5;64.1
78438;SHT31;67736;51.978;5.656;2023-06-22T04:05:40;20.4;64.4
78438;SHT31;67736;51.978;5.656;2023-06-22T04:08:12;20.4;64.1
78438;SHT31;67736;51.978;5.656;2023-06-22T04:10:42;20.4;64.0
78438;SHT31;67736;51.978;5.656;2023-06-22T04:13:12;20.4;64.4
78438;SHT31;67736;51.978;5.656;2023-06-22T04:15:42;20.4;64.4
78438;SHT31;67736;51.978;5.656;2023-06-22T04:18:11;20.4;64.7
78438;SHT31;67736;51.978;5.656;2023-06-22T04:20:41;20.4;64.9
78438;SHT31;67736;51.978;5.656;2023-06-22T04:23:14;20.4;64.9
78438;SHT31;67736;51.978;5.656;2023-06-22T04:25:44;20.4;65.1
78438;SHT31;67736;51.978;5.656;2023-06-22T04:28:13;20.4;65.3
78438;SHT31;67736;51.978;5.656;2023-06-22T04:30:43;20.4;65.4
78438;SHT31;67736;51.978;5.656;2023-06-22T04:33:16;20.4;65.4
78438;SHT31;67736;51.978;5.656;2023-06-22T04:35:46;20.4;65.7
78438;SHT31;67736;51.978;5.656;2023-06-22T04:38:16;20.4;65.9
78438;SHT31;67736;51.978;5.656;2023-06-22T04:40:45;20.4;65.8
78438;SHT31;67736;51.978;5.656;2023-06-22T04:43:15;20.4;66.1
78438;SHT31;67736;51.978;5.656;2023-06-22T04:45:45;20.4;66.2
78438;SHT31;67736;51.978;5.656;2023-06-22T04:48:19;20.4;66.3
78438;SHT31;67736;51.978;5.656;2023-06-22T04:50:49;20.4;66.4
78438;SHT31;67736;51.978;5.656;2023-06-22T04:53:19;20.4;66.6
78438;SHT31;67736;51.978;5.656;2023-06-22T04:55:48;20.5;66.9
78438;SHT31;67736;51.978;5.656;2023-06-22T04:58:20;20.5;67.0
78438;SHT31;67736;51.978;5.656;2023-06-22T05:00:50;20.5;67.1
78438;SHT31;67736;51.978;5.656;2023-06-22T05:03:19;20.5;67.2
78438;SHT31;67736;51.978;5.656;2023-06-22T05:05:49;20.6;67.3
78438;SHT31;67736;51.978;5.656;2023-06-22T05:08:19;20.6;67.2
78438;SHT31;67736;51.978;5.656;2023-06-22T05:10:48;20.6;67.1
78438;SHT31;67736;51.978;5.656;2023-06-22T05:13:18;20.7;67.5
78438;SHT31;67736;51.978;5.656;2023-06-22T05:15:49;20.7;67.5
78438;SHT31;67736;51.978;5.656;2023-06-22T05:18:18;20.7;67.3
78438;SHT31;67736;51.978;5.656;2023-06-22T05:20:51;20.8;67.6
78438;SHT31;67736;51.978;5.656;2023-06-22T05:23:21;20.8;67.8
78438;SHT31;67736;51.978;5.656;2023-06-22T05:25:50;20.9;67.7
78438;SHT31;67736;51.978;5.656;2023-06-22T05:28:22;20.9;67.7
78438;SHT31;67736;51.978;5.656;2023-06-22T05:30:52;21.0;67.5
78438;SHT31;67736;51.978;5.656;2023-06-22T05:33:22;21.0;67.0
78438;SHT31;67736;51.978;5.656;2023-06-22T05:35:51;21.1;67.0
78438;SHT31;67736;51.978;5.656;2023-06-22T05:38:21;21.1;67.1
78438;SHT31;67736;51.978;5.656;2023-06-22T05:40:52;21.2;66.8
78438;SHT31;67736;51.978;5.656;2023-06-22T05:43:22;21.2;66.6
78438;SHT31;67736;51.978;5.656;2023-06-22T05:45:52;21.3;66.4
78438;SHT31;67736;51.978;5.656;2023-06-22T05:48:21;21.4;65.9
78438;SHT31;67736;51.978;5.656;2023-06-22T05:50:52;21.4;65.8
78438;SHT31;67736;51.978;5.656;2023-06-22T05:53:22;21.5;65.8
78438;SHT31;67736;51.978;5.656;2023-06-22T05:55:52;21.6;65.4
78438;SHT31;67736;51.978;5.656;2023-06-22T05:58:22;21.6;65.1
78438;SHT31;67736;51.978;5.656;2023-06-22T06:00:54;21.7;64.9
78438;SHT31;67736;51.978;5.656;2023-06-22T06:03:23;21.8;64.3
78438;SHT31;67736;51.978;5.656;2023-06-22T06:05:54;21.8;64.7
78438;SHT31;67736;51.978;5.656;2023-06-22T06:08:25;21.9;64.7
78438;SHT31;67736;51.978;5.656;2023-06-22T06:10:54;22.0;64.1
78438;SHT31;67736;51.978;5.656;2023-06-22T06:13:25;22.1;63.8
78438;SHT31;67736;51.978;5.656;2023-06-22T06:15:54;22.1;63.6
78438;SHT31;67736;51.978;5.656;2023-06-22T06:18:25;22.2;63.2
78438;SHT31;67736;51.978;5.656;2023-06-22T06:20:54;22.3;63.1
78438;SHT31;67736;51.978;5.656;2023-06-22T06:23:24;22.4;63.1
78438;SHT31;67736;51.978;5.656;2023-06-22T06:25:54;22.4;63.2
78438;SHT31;67736;51.978;5.656;2023-06-22T06:28:24;22.5;63.0
78438;SHT31;67736;51.978;5.656;2023-06-22T06:30:54;22.6;62.8
78438;SHT31;67736;51.978;5.656;2023-06-22T06:33:24;22.7;63.3
78438;SHT31;67736;51.978;5.656;2023-06-22T06:35:54;22.8;62.7
78438;SHT31;67736;51.978;5.656;2023-06-22T06:38:25;22.9;62.5
78438;SHT31;67736;51.978;5.656;2023-06-22T06:40:56;22.9;62.3
78438;SHT31;67736;51.978;5.656;2023-06-22T06:43:25;23.0;61.7
78438;SHT31;67736;51.978;5.656;2023-06-22T06:45:55;23.1;61.9
78438;SHT31;67736;51.978;5.656;2023-06-22T06:48:25;23.2;61.7
78438;SHT31;67736;51.978;5.656;2023-06-22T06:50:56;23.3;61.3
78438;SHT31;67736;51.978;5.656;2023-06-22T06:53:26;23.4;60.9
78438;SHT31;67736;51.978;5.656;2023-06-22T06:55:56;23.4;60.9
78438;SHT31;67736;51.978;5.656;2023-06-22T06:58:25;23.5;60.8
78438;SHT31;67736;51.978;5.656;2023-06-22T07:00:56;23.6;60.3
78438;SHT31;67736;51.978;5.656;2023-06-22T07:03:26;23.7;60.0
78438;SHT31;67736;51.978;5.656;2023-06-22T07:05:56;23.8;59.4
78438;SHT31;67736;51.978;5.656;2023-06-22T07:08:25;23.9;59.3
78438;SHT31;67736;51.978;5.656;2023-06-22T07:10:56;24.0;58.6
78438;SHT31;67736;51.978;5.656;2023-06-22T07:13:26;24.1;58.5
78438;SHT31;67736;51.978;5.656;2023-06-22T07:15:56;24.2;58.3
78438;SHT31;67736;51.978;5.656;2023-06-22T07:18:25;24.4;58.3
78438;SHT31;67736;51.978;5.656;2023-06-22T07:20:56;24.5;57.9
78438;SHT31;67736;51.978;5.656;2023-06-22T07:23:25;24.6;56.8
78438;SHT31;67736;51.978;5.656;2023-06-22T07:25:55;24.8;55.8
78438;SHT31;67736;51.978;5.656;2023-06-22T07:28:25;24.9;56.0
78438;SHT31;67736;51.978;5.656;2023-06-22T07:30:54;25.0;53.9
78438;SHT31;67736;51.978;5.656;2023-06-22T07:33:24;25.1;53.3
78438;SHT31;67736;51.978;5.656;2023-06-22T07:35:55;25.2;53.9
78438;SHT31;67736;51.978;5.656;2023-06-22T07:38:24;25.3;53.9
78438;SHT31;67736;51.978;5.656;2023-06-22T07:40:54;25.4;52.5
78438;SHT31;67736;51.978;5.656;2023-06-22T07:43:25;25.6;52.9
78438;SHT31;67736;51.978;5.656;2023-06-22T07:45:56;25.7;52.9
78438;SHT31;67736;51.978;5.656;2023-06-22T07:48:26;25.9;51.2
78438;SHT31;67736;51.978;5.656;2023-06-22T07:50:56;26.0;50.7
78438;SHT31;67736;51.978;5.656;2023-06-22T07:53:26;26.2;51.0
78438;SHT31;67736;51.978;5.656;2023-06-22T07:55:55;26.5;50.7
78438;SHT31;67736;51.978;5.656;2023-06-22T07:58:25;26.7;49.6
78438;SHT31;67736;51.978;5.656;2023-06-22T08:00:55;26.9;47.7
78438;SHT31;67736;51.978;5.656;2023-06-22T08:03:25;27.0;47.3
78438;SHT31;67736;51.978;5.656;2023-06-22T08:05:57;27.2;47.7
78438;SHT31;67736;51.978;5.656;2023-06-22T08:08:27;27.4;47.7
78438;SHT31;67736;51.978;5.656;2023-06-22T08:10:57;27.5;47.1
78438;SHT31;67736;51.978;5.656;2023-06-22T08:13:26;27.7;46.5
78438;SHT31;67736;51.978;5.656;2023-06-22T08:15:56;27.8;45.8
78438;SHT31;67736;51.978;5.656;2023-06-22T08:18:26;27.8;45.7
78438;SHT31;67736;51.978;5.656;2023-06-22T08:20:55;27.9;46.2
78438;SHT31;67736;51.978;5.656;2023-06-22T08:23:25;28.0;45.9
78438;SHT31;67736;51.978;5.656;2023-06-22T08:25:55;28.0;46.5
78438;SHT31;67736;51.978;5.656;2023-06-22T08:28:25;28.1;46.4
78438;SHT31;67736;51.978;5.656;2023-06-22T08:30:55;28.1;45.0
78438;SHT31;67736;51.978;5.656;2023-06-22T08:33:25;28.2;45.0
78438;SHT31;67736;51.978;5.656;2023-06-22T08:35:56;28.2;45.4
78438;SHT31;67736;51.978;5.656;2023-06-22T08:38:26;28.2;45.3
78438;SHT31;67736;51.978;5.656;2023-06-22T08:40:55;28.2;44.8
78438;SHT31;67736;51.978;5.656;2023-06-22T08:43:25;28.3;45.5
78438;SHT31;67736;51.978;5.656;2023-06-22T08:45:55;28.3;44.7
78438;SHT31;67736;51.978;5.656;2023-06-22T08:48:24;28.4;45.1
78438;SHT31;67736;51.978;5.656;2023-06-22T08:50:54;28.4;44.5
78438;SHT31;67736;51.978;5.656;2023-06-22T08:53:24;28.4;44.7
78438;SHT31;67736;51.978;5.656;2023-06-22T08:55:53;28.4;44.6
78438;SHT31;67736;51.978;5.656;2023-06-22T08:58:25;28.5;44.5
78438;SHT31;67736;51.978;5.656;2023-06-22T09:00:55;28.5;44.8
78438;SHT31;67736;51.978;5.656;2023-06-22T09:03:28;28.6;44.9
78438;SHT31;67736;51.978;5.656;2023-06-22T09:06:00;28.7;45.0
78438;SHT31;67736;51.978;5.656;2023-06-22T09:08:29;28.7;44.2
78438;SHT31;67736;51.978;5.656;2023-06-22T09:10:59;28.8;44.7
78438;SHT31;67736;51.978;5.656;2023-06-22T09:13:30;28.9;44.1
78438;SHT31;67736;51.978;5.656;2023-06-22T09:16:00;29.0;43.7
78438;SHT31;67736;51.978;5.656;2023-06-22T09:18:30;29.0;43.6
78438;SHT31;67736;51.978;5.656;2023-06-22T09:21:00;29.1;42.9
78438;SHT31;67736;51.978;5.656;2023-06-22T09:23:31;29.1;41.9
78438;SHT31;67736;51.978;5.656;2023-06-22T09:26:01;29.2;42.0
78438;SHT31;67736;51.978;5.656;2023-06-22T09:28:31;29.2;42.1
78438;SHT31;67736;51.978;5.656;2023-06-22T09:31:01;29.3;42.4
78438;SHT31;67736;51.978;5.656;2023-06-22T09:33:30;29.3;41.8
78438;SHT31;67736;51.978;5.656;2023-06-22T09:36:02;29.3;40.8
78438;SHT31;67736;51.978;5.656;2023-06-22T09:38:34;29.3;41.0
78438;SHT31;67736;51.978;5.656;2023-06-22T09:41:04;29.4;41.1
78438;SHT31;67736;51.978;5.656;2023-06-22T09:43:34;29.4;39.6
78438;SHT31;67736;51.978;5.656;2023-06-22T09:46:04;29.4;40.2
78438;SHT31;67736;51.978;5.656;2023-06-22T09:48:34;29.4;40.1
78438;SHT31;67736;51.978;5.656;2023-06-22T09:51:04;29.4;40.0
78438;SHT31;67736;51.978;5.656;2023-06-22T09:53:34;29.3;40.0
78438;SHT31;67736;51.978;5.656;2023-06-22T09:56:04;29.3;40.3
78438;SHT31;67736;51.978;5.656;2023-06-22T09:58:34;29.3;40.5
78438;SHT31;67736;51.978;5.656;2023-06-22T10:01:04;29.2;40.4
78438;SHT31;67736;51.978;5.656;2023-06-22T10:03:33;29.2;40.8
78438;SHT31;67736;51.978;5.656;2023-06-22T10:06:03;29.2;40.0
78438;SHT31;67736;51.978;5.656;2023-06-22T10:08:33;29.2;40.3
78438;SHT31;67736;51.978;5.656;2023-06-22T10:11:03;29.1;41.2
78438;SHT31;67736;51.978;5.656;2023-06-22T10:13:33;29.1;41.4
78438;SHT31;67736;51.978;5.656;2023-06-22T10:16:03;29.0;40.6
78438;SHT31;67736;51.978;5.656;2023-06-22T10:18:33;29.0;41.4
78438;SHT31;67736;51.978;5.656;2023-06-22T10:21:02;29.0;40.8
78438;SHT31;67736;51.978;5.656;2023-06-22T10:23:32;28.9;41.3
78438;SHT31;67736;51.978;5.656;2023-06-22T10:26:01;28.9;41.8
78438;SHT31;67736;51.978;5.656;2023-06-22T10:28:31;28.8;41.7
78438;SHT31;67736;51.978;5.656;2023-06-22T10:31:00;28.8;42.6
78438;SHT31;67736;51.978;5.656;2023-06-22T10:33:32;28.7;42.9
78438;SHT31;67736;51.978;5.656;2023-06-22T10:36:02;28.7;42.7
78438;SHT31;67736;51.978;5.656;2023-06-22T10:38:32;28.6;42.9
78438;SHT31;67736;51.978;5.656;2023-06-22T10:41:01;28.6;42.6
78438;SHT31;67736;51.978;5.656;2023-06-22T10:43:31;28.6;43.4
78438;SHT31;67736;51.978;5.656;2023-06-22T10:46:01;28.5;43.5
78438;SHT31;67736;51.978;5.656;2023-06-22T10:48:30;28.5;43.4
78438;SHT31;67736;51.978;5.656;2023-06-22T10:51:00;28.5;43.1
78438;SHT31;67736;51.978;5.656;2023-06-22T10:53:30;28.5;43.9
78438;SHT31;67736;51.978;5.656;2023-06-22T10:55:59;28.4;44.5
78438;SHT31;67736;51.978;5.656;2023-06-22T10:58:29;28.4;44.0
78438;SHT31;67736;51.978;5.656;2023-06-22T11:00:59;28.4;44.4
78438;SHT31;67736;51.978;5.656;2023-06-22T11:03:30;28.4;44.7
78438;SHT31;67736;51.978;5.656;2023-06-22T11:06:00;28.4;43.9
78438;SHT31;67736;51.978;5.656;2023-06-22T11:08:29;28.4;43.7
78438;SHT31;67736;51.978;5.656;2023-06-22T11:10:59;28.3;44.1
78438;SHT31;67736;51.978;5.656;2023-06-22T11:13:28;28.3;45.4
78438;SHT31;67736;51.978;5.656;2023-06-22T11:15:58;28.3;45.0
78438;SHT31;67736;51.978;5.656;2023-06-22T11:18:29;28.3;44.5
78438;SHT31;67736;51.978;5.656;2023-06-22T11:21:03;28.2;44.8
78438;SHT31;67736;51.978;5.656;2023-06-22T11:23:35;28.2;45.3
78438;SHT31;67736;51.978;5.656;2023-06-22T11:26:07;28.2;45.5
78438;SHT31;67736;51.978;5.656;2023-06-22T11:28:39;28.2;46.3
78438;SHT31;67736;51.978;5.656;2023-06-22T11:31:11;28.2;47.9
78438;SHT31;67736;51.978;5.656;2023-06-22T11:33:43;28.2;47.1
78438;SHT31;67736;51.978;5.656;2023-06-22T11:36:16;28.2;46.4
78438;SHT31;67736;51.978;5.656;2023-06-22T11:38:48;28.2;48.5
78438;SHT31;67736;51.978;5.656;2023-06-22T11:41:23;28.2;47.2
78438;SHT31;67736;51.978;5.656;2023-06-22T11:43:53;28.2;47.9
78438;SHT31;67736;51.978;5.656;2023-06-22T11:46:23;28.2;47.1
78438;SHT31;67736;51.978;5.656;2023-06-22T11:48:52;28.2;48.3
78438;SHT31;67736;51.978;5.656;2023-06-22T11:51:22;28.2;46.7
78438;SHT31;67736;51.978;5.656;2023-06-22T11:53:56;28.1;47.4
78438;SHT31;67736;51.978;5.656;2023-06-22T11:56:28;28.1;48.2
78438;SHT31;67736;51.978;5.656;2023-06-22T11:59:01;28.1;47.8
78438;SHT31;67736;51.978;5.656;2023-06-22T12:01:33;28.1;50.0
78438;SHT31;67736;51.978;5.656;2023-06-22T12:04:05;28.0;49.9
78438;SHT31;67736;51.978;5.656;2023-06-22T12:06:40;28.0;50.6
78438;SHT31;67736;51.978;5.656;2023-06-22T12:09:13;28.0;51.1
78438;SHT31;67736;51.978;5.656;2023-06-22T12:11:45;27.9;51.4
78438;SHT31;67736;51.978;5.656;2023-06-22T12:14:18;27.9;52.7
78438;SHT31;67736;51.978;5.656;2023-06-22T12:16:50;27.8;52.8
78438;SHT31;67736;51.978;5.656;2023-06-22T12:19:26;27.7;53.7
78438;SHT31;67736;51.978;5.656;2023-06-22T12:21:58;27.6;54.8
78438;SHT31;67736;51.978;5.656;2023-06-22T12:24:28;27.6;55.5
78438;SHT31;67736;51.978;5.656;2023-06-22T12:26:58;27.5;55.3
78438;SHT31;67736;51.978;5.656;2023-06-22T12:29:27;27.5;55.8
78438;SHT31;67736;51.978;5.656;2023-06-22T12:31:57;27.4;55.2
78438;SHT31;67736;51.978;5.656;2023-06-22T12:34:26;27.3;55.5
78438;SHT31;67736;51.978;5.656;2023-06-22T12:36:56;27.2;56.3
78438;SHT31;67736;51.978;5.656;2023-06-22T12:39:26;27.1;55.2
78438;SHT31;67736;51.978;5.656;2023-06-22T12:41:55;27.0;55.8
78438;SHT31;67736;51.978;5.656;2023-06-22T12:44:25;26.9;57.4
78438;SHT31;67736;51.978;5.656;2023-06-22T12:46:54;26.8;57.9
78438;SHT31;67736;51.978;5.656;2023-06-22T12:49:24;26.8;59.1
78438;SHT31;67736;51.978;5.656;2023-06-22T12:51:53;26.7;59.2
78438;SHT31;67736;51.978;5.656;2023-06-22T12:54:23;26.6;59.5
78438;SHT31;67736;51.978;5.656;2023-06-22T12:56:55;26.5;59.9
78438;SHT31;67736;51.978;5.656;2023-06-22T12:59:25;26.5;59.8
78438;SHT31;67736;51.978;5.656;2023-06-22T13:01:55;26.4;60.0
78438;SHT31;67736;51.978;5.656;2023-06-22T13:04:24;26.4;60.9
78438;SHT31;67736;51.978;5.656;2023-06-22T13:06:54;26.3;62.2
78438;SHT31;67736;51.978;5.656;2023-06-22T13:09:24;26.2;62.9
78438;SHT31;67736;51.978;5.656;2023-06-22T13:11:53;26.2;61.0
78438;SHT31;67736;51.978;5.656;2023-06-22T13:14:26;26.1;61.2
78438;SHT31;67736;51.978;5.656;2023-06-22T13:16:56;26.1;61.7
78438;SHT31;67736;51.978;5.656;2023-06-22T13:19:25;26.0;62.6
78438;SHT31;67736;51.978;5.656;2023-06-22T13:21:59;26.0;62.0
78438;SHT31;67736;51.978;5.656;2023-06-22T13:24:30;25.9;61.5
78438;SHT31;67736;51.978;5.656;2023-06-22T13:26:59;25.9;61.9
78438;SHT31;67736;51.978;5.656;2023-06-22T13:29:29;25.8;63.1
78438;SHT31;67736;51.978;5.656;2023-06-22T13:31:58;25.8;63.5
78438;SHT31;67736;51.978;5.656;2023-06-22T13:34:28;25.7;63.5
78438;SHT31;67736;51.978;5.656;2023-06-22T13:36:58;25.7;63.7
78438;SHT31;67736;51.978;5.656;2023-06-22T13:39:27;25.6;64.2
78438;SHT31;67736;51.978;5.656;2023-06-22T13:41:58;25.6;64.2
78438;SHT31;67736;51.978;5.656;2023-06-22T13:44:28;25.5;64.7
78438;SHT31;67736;51.978;5.656;2023-06-22T13:46:59;25.5;62.8
78438;SHT31;67736;51.978;5.656;2023-06-22T13:49:29;25.5;63.5
78438;SHT31;67736;51.978;5.656;2023-06-22T13:51:58;25.4;64.6
78438;SHT31;67736;51.978;5.656;2023-06-22T13:54:30;25.4;63.8
78438;SHT31;67736;51.978;5.656;2023-06-22T13:57:00;25.4;63.8
78438;SHT31;67736;51.978;5.656;2023-06-22T13:59:30;25.3;64.1
78438;SHT31;67736;51.978;5.656;2023-06-22T14:01:59;25.3;64.0
78438;SHT31;67736;51.978;5.656;2023-06-22T14:04:29;25.2;65.1
78438;SHT31;67736;51.978;5.656;2023-06-22T14:06:59;25.1;64.9
78438;SHT31;67736;51.978;5.656;2023-06-22T14:09:28;25.1;65.6
78438;SHT31;67736;51.978;5.656;2023-06-22T14:11:58;25.0;65.3
78438;SHT31;67736;51.978;5.656;2023-06-22T14:14:32;24.9;65.3
78438;SHT31;67736;51.978;5.656;2023-06-22T14:17:03;24.8;64.5
78438;SHT31;67736;51.978;5.656;2023-06-22T14:19:35;24.8;65.1
78438;SHT31;67736;51.978;5.656;2023-06-22T14:22:05;24.7;65.2
78438;SHT31;67736;51.978;5.656;2023-06-22T14:24:35;24.6;65.7
78438;SHT31;67736;51.978;5.656;2023-06-22T14:27:05;24.5;67.0
78438;SHT31;67736;51.978;5.656;2023-06-22T14:29:36;24.4;65.6
78438;SHT31;67736;51.978;5.656;2023-06-22T14:32:06;24.4;66.7
78438;SHT31;67736;51.978;5.656;2023-06-22T14:34:36;24.3;66.5
78438;SHT31;67736;51.978;5.656;2023-06-22T14:37:07;24.2;67.3
78438;SHT31;67736;51.978;5.656;2023-06-22T14:39:37;24.2;68.0
78438;SHT31;67736;51.978;5.656;2023-06-22T14:42:08;24.1;67.5
78438;SHT31;67736;51.978;5.656;2023-06-22T14:44:38;24.1;67.4
78438;SHT31;67736;51.978;5.656;2023-06-22T14:47:10;24.0;67.4
78438;SHT31;67736;51.978;5.656;2023-06-22T14:49:39;24.0;67.5
78438;SHT31;67736;51.978;5.656;2023-06-22T14:52:11;23.9;66.9
78438;SHT31;67736;51.978;5.656;2023-06-22T14:54:41;23.9;66.3
78438;SHT31;67736;51.978;5.656;2023-06-22T14:57:13;23.8;66.8
78438;SHT31;67736;51.978;5.656;2023-06-22T14:59:45;23.7;66.3
78438;SHT31;67736;51.978;5.656;2023-06-22T15:02:16;23.7;68.1
78438;SHT31;67736;51.978;5.656;2023-06-22T15:04:46;23.6;67.6
78438;SHT31;67736;51.978;5.656;2023-06-22T15:07:17;23.5;69.0
78438;SHT31;67736;51.978;5.656;2023-06-22T15:09:47;23.5;68.9
78438;SHT31;67736;51.978;5.656;2023-06-22T15:12:17;23.5;69.2
78438;SHT31;67736;51.978;5.656;2023-06-22T15:14:46;23.4;70.1
78438;SHT31;67736;51.978;5.656;2023-06-22T15:17:16;23.4;71.1
78438;SHT31;67736;51.978;5.656;2023-06-22T15:19:46;23.4;70.6
78438;SHT31;67736;51.978;5.656;2023-06-22T15:22:15;23.4;71.7
78438;SHT31;67736;51.978;5.656;2023-06-22T15:24:47;23.4;71.2
78438;SHT31;67736;51.978;5.656;2023-06-22T15:27:20;23.4;70.4
78438;SHT31;67736;51.978;5.656;2023-06-22T15:29:50;23.4;70.5
78438;SHT31;67736;51.978;5.656;2023-06-22T15:32:19;23.4;69.8
78438;SHT31;67736;51.978;5.656;2023-06-22T15:34:49;23.4;71.1
78438;SHT31;67736;51.978;5.656;2023-06-22T15:37:21;23.4;70.3
78438;SHT31;67736;51.978;5.656;2023-06-22T15:39:51;23.4;70.8
78438;SHT31;67736;51.978;5.656;2023-06-22T15:42:20;23.3;70.6
78438;SHT31;67736;51.978;5.656;2023-06-22T15:44:50;23.3;71.0
78438;SHT31;67736;51.978;5.656;2023-06-22T15:47:19;23.3;70.5
78438;SHT31;67736;51.978;5.656;2023-06-22T15:49:50;23.2;70.8
78438;SHT31;67736;51.978;5.656;2023-06-22T15:52:20;23.2;70.8
78438;SHT31;67736;51.978;5.656;2023-06-22T15:54:49;23.2;71.4
78438;SHT31;67736;51.978;5.656;2023-06-22T15:57:23;23.2;71.4
78438;SHT31;67736;51.978;5.656;2023-06-22T15:59:53;23.1;72.0
78438;SHT31;67736;51.978;5.656;2023-06-22T16:02:23;23.1;71.8
78438;SHT31;67736;51.978;5.656;2023-06-22T16:04:54;23.1;72.3
78438;SHT31;67736;51.978;5.656;2023-06-22T16:07:26;23.0;72.9
78438;SHT31;67736;51.978;5.656;2023-06-22T16:09:56;23.0;72.9
78438;SHT31;67736;51.978;5.656;2023-06-22T16:12:26;23.0;73.3
78438;SHT31;67736;51.978;5.656;2023-06-22T16:14:56;23.0;73.4
78438;SHT31;67736;51.978;5.656;2023-06-22T16:17:26;23.0;74.1
78438;SHT31;67736;51.978;5.656;2023-06-22T16:19:55;23.0;74.3
78438;SHT31;67736;51.978;5.656;2023-06-22T16:22:26;23.0;74.5